sensor_id;sensor_type;location;lat;lon;timestamp;temperature;humidity
19044;DHT22;9654;52.302;8.120;2023-03-13T00:01:25;9.20;99.90
19044;DHT22;9654;52.302;8.120;2023-03-13T00:03:52;9.30;99.90
19044;DHT22;9654;52.302;8.120;2023-03-13T00:06:20;9.30;99.90
19044;DHT22;9654;52.302;8.120;2023-03-13T00:08:47;9.30;99.90
19044;DHT22;9654;52.302;8.120;2023-03-13T00:11:15;9.30;99.90
19044;DHT22;9654;52.302;8.120;2023-03-13T00:13:43;9.30;99.90
19044;DHT22;9654;52.302;8.120;2023-03-13T00:16:11;9.40;99.90
19044;DHT22;9654;52.302;8.120;2023-03-13T00:18:40;9.40;99.90
19044;DHT22;9654;52.302;8.120;2023-03-13T00:21:09;9.40;99.90
19044;DHT22;9654;52.302;8.120;2023-03-13T00:23:37;9.40;99.90
19044;DHT22;9654;52.302;8.120;2023-03-13T00:26:06;9.40;99.90
19044;DHT22;9654;52.302;8.120;2023-03-13T00:28:36;9.40;99.90
19044;DHT22;9654;52.302;8.120;2023-03-13T00:31:04;9.50;99.90
19044;DHT22;9654;52.302;8.120;2023-03-13T00:33:32;9.40;99.90
19044;DHT22;9654;52.302;8.120;2023-03-13T00:35:59;9.40;99.90
19044;DHT22;9654;52.302;8.120;2023-03-13T00:38:27;9.40;99.90
19044;DHT22;9654;52.302;8.120;2023-03-13T00:40:58;9.40;99.90
19044;DHT22;9654;52.302;8.120;2023-03-13T00:43:25;9.40;99.90
19044;DHT22;9654;52.302;8.120;2023-03-13T00:45:54;9.40;99.90
19044;DHT22;9654;52.302;8.120;2023-03-13T00:48:21;9.40;99.90
19044;DHT22;9654;52.302;8.120;2023-03-13T00:50:48;9.40;99.90
19044;DHT22;9654;52.302;8.120;2023-03-13T00:53:15;9.40;99.90
19044;DHT22;9654;52.302;8.120;2023-03-13T00:55:51;9.50;99.90
19044;DHT22;9654;52.302;8.120;2023-03-13T00:58:17;9.50;99.90
19044;DHT22;9654;52.302;8.120;2023-03-13T01:00:44;9.40;99.90
19044;DHT22;9654;52.302;8.120;2023-03-13T01:03:12;9.40;99.90
19044;DHT22;9654;52.302;8.120;2023-03-13T01:05:39;9.40;99.90
19044;DHT22;9654;52.302;8.120;2023-03-13T01:08:06;9.40;99.90
19044;DHT22;9654;52.302;8.120;2023-03-13T01:10:33;9.40;99.90
19044;DHT22;9654;52.302;8.120;2023-03-13T01:13:00;9.40;99.90
19044;DHT22;9654;52.302;8.120;2023-03-13T01:15:29;9.40;99.90
19044;DHT22;9654;52.302;8.120;2023-03-13T01:17:56;9.30;99.90
19044;DHT22;9654;52.302;8.120;2023-03-13T01:20:24;9.30;99.90
19044;DHT22;9654;52.302;8.120;2023-03-13T01:22:50;9.20;99.90
19044;DHT22;9654;52.302;8.120;2023-03-13T01:25:17;9.20;99.90
19044;DHT22;9654;52.302;8.120;2023-03-13T01:27:44;9.20;99.90
19044;DHT22;9654;52.302;8.120;2023-03-13T01:30:11;9.10;99.90
19044;DHT22;9654;52.302;8.120;2023-03-13T01:32:38;9.10;99.90
19044;DHT22;9654;52.302;8.120;2023-03-13T01:35:05;9.10;99.90
19044;DHT22;9654;52.302;8.120;2023-03-13T01:37:34;9.00;99.90
19044;DHT22;9654;52.302;8.120;2023-03-13T01:40:00;9.00;99.90
19044;DHT22;9654;52.302;8.120;2023-03-13T01:42:27;9.00;99.90
19044;DHT22;9654;52.302;8.120;2023-03-13T01:44:55;8.90;99.90
19044;DHT22;9654;52.302;8.120;2023-03-13T01:47:22;8.90;99.90
19044;DHT22;9654;52.302;8.120;2023-03-13T01:49:50;8.90;99.90
19044;DHT22;9654;52.302;8.120;2023-03-13T01:52:19;8.80;99.90
19044;DHT22;9654;52.302;8.120;2023-03-13T01:54:51;8.80;99.90
19044;DHT22;9654;52.302;8.120;2023-03-13T01:57:24;8.80;99.90
19044;DHT22;9654;52.302;8.120;2023-03-13T01:59:55;8.70;99.90
19044;DHT22;9654;52.302;8.120;2023-03-13T02:02:23;8.70;99.90
19044;DHT22;9654;52.302;8.120;2023-03-13T02:04:55;8.70;99.90
19044;DHT22;9654;52.302;8.120;2023-03-13T02:07:25;8.60;99.90
19044;DHT22;9654;52.302;8.120;2023-03-13T02:09:55;8.60;99.90
19044;DHT22;9654;52.302;8.120;2023-03-13T02:12:26;8.60;99.90
19044;DHT22;9654;52.302;8.120;2023-03-13T02:14:56;8.50;99.90
19044;DHT22;9654;52.302;8.120;2023-03-13T02:17:24;8.50;99.90
19044;DHT22;9654;52.302;8.120;2023-03-13T02:19:51;8.50;99.90
19044;DHT22;9654;52.302;8.120;2023-03-13T02:22:24;8.50;99.90
19044;DHT22;9654;52.302;8.120;2023-03-13T02:24:57;8.50;99.90
19044;DHT22;9654;52.302;8.120;2023-03-13T02:27:27;8.40;99.90
19044;DHT22;9654;52.302;8.120;2023-03-13T02:29:54;8.40;99.90
19044;DHT22;9654;52.302;8.120;2023-03-13T02:32:22;8.40;99.90
19044;DHT22;9654;52.302;8.120;2023-03-13T02:34:51;8.50;99.90
19044;DHT22;9654;52.302;8.120;2023-03-13T02:37:20;8.40;99.90
19044;DHT22;9654;52.302;8.120;2023-03-13T02:39:48;8.40;99.90
19044;DHT22;9654;52.302;8.120;2023-03-13T02:42:17;8.40;99.90
19044;DHT22;9654;52.302;8.120;2023-03-13T02:44:46;8.40;99.90
19044;DHT22;9654;52.302;8.120;2023-03-13T02:47:17;8.40;99.90
19044;DHT22;9654;52.302;8.120;2023-03-13T02:49:44;8.40;99.90
19044;DHT22;9654;52.302;8.120;2023-03-13T02:52:15;8.40;99.90
19044;DHT22;9654;52.302;8.120;2023-03-13T02:54:44;8.50;99.90
19044;DHT22;9654;52.302;8.120;2023-03-13T02:57:13;8.50;99.90
19044;DHT22;9654;52.302;8.120;2023-03-13T02:59:40;8.50;99.90
19044;DHT22;9654;52.302;8.120;2023-03-13T03:02:08;8.50;99.90
19044;DHT22;9654;52.302;8.120;2023-03-13T03:04:34;8.50;99.90
19044;DHT22;9654;52.302;8.120;2023-03-13T03:07:01;8.50;99.90
19044;DHT22;9654;52.302;8.120;2023-03-13T03:09:28;8.50;99.90
19044;DHT22;9654;52.302;8.120;2023-03-13T03:11:55;8.50;99.90
19044;DHT22;9654;52.302;8.120;2023-03-13T03:14:21;8.50;99.90
19044;DHT22;9654;52.302;8.120;2023-03-13T03:16:48;8.50;99.90
19044;DHT22;9654;52.302;8.120;2023-03-13T03:19:16;8.50;99.90
19044;DHT22;9654;52.302;8.120;2023-03-13T03:21:43;8.50;99.90
19044;DHT22;9654;52.302;8.120;2023-03-13T03:24:10;8.50;99.90
19044;DHT22;9654;52.302;8.120;2023-03-13T03:26:37;8.50;99.90
19044;DHT22;9654;52.302;8.120;2023-03-13T03:29:03;8.60;99.90
19044;DHT22;9654;52.302;8.120;2023-03-13T03:31:32;8.60;99.90
19044;DHT22;9654;52.302;8.120;2023-03-13T03:33:59;8.60;99.90
19044;DHT22;9654;52.302;8.120;2023-03-13T03:36:28;8.60;99.90
19044;DHT22;9654;52.302;8.120;2023-03-13T03:38:55;8.70;99.90
19044;DHT22;9654;52.302;8.120;2023-03-13T03:41:21;8.80;99.90
19044;DHT22;9654;52.302;8.120;2023-03-13T03:43:48;8.80;99.90
19044;DHT22;9654;52.302;8.120;2023-03-13T03:46:15;8.80;99.90
19044;DHT22;9654;52.302;8.120;2023-03-13T03:48:42;8.80;99.90
19044;DHT22;9654;52.302;8.120;2023-03-13T03:51:09;8.80;99.90
19044;DHT22;9654;52.302;8.120;2023-03-13T03:53:37;8.90;99.90
19044;DHT22;9654;52.302;8.120;2023-03-13T03:56:04;8.90;99.90
19044;DHT22;9654;52.302;8.120;2023-03-13T03:58:31;9.00;99.90
19044;DHT22;9654;52.302;8.120;2023-03-13T04:00:58;9.00;99.90
19044;DHT22;9654;52.302;8.120;2023-03-13T04:03:25;9.00;99.90
19044;DHT22;9654;52.302;8.120;2023-03-13T04:05:52;9.00;99.90
19044;DHT22;9654;52.302;8.120;2023-03-13T04:08:20;9.00;99.90
19044;DHT22;9654;52.302;8.120;2023-03-13T04:10:48;9.00;99.90
19044;DHT22;9654;52.302;8.120;2023-03-13T04:13:15;9.10;99.90
19044;DHT22;9654;52.302;8.120;2023-03-13T04:15:42;9.10;99.90
19044;DHT22;9654;52.302;8.120;2023-03-13T04:18:09;9.10;99.90
19044;DHT22;9654;52.302;8.120;2023-03-13T04:20:36;9.10;99.90
19044;DHT22;9654;52.302;8.120;2023-03-13T04:23:03;9.10;99.90
19044;DHT22;9654;52.302;8.120;2023-03-13T04:25:29;9.20;99.90
19044;DHT22;9654;52.302;8.120;2023-03-13T04:27:58;9.20;99.90
19044;DHT22;9654;52.302;8.120;2023-03-13T04:30:24;9.20;99.90
19044;DHT22;9654;52.302;8.120;2023-03-13T04:32:51;9.30;99.90
19044;DHT22;9654;52.302;8.120;2023-03-13T04:35:18;9.30;99.90
19044;DHT22;9654;52.302;8.120;2023-03-13T04:37:45;9.40;99.90
19044;DHT22;9654;52.302;8.120;2023-03-13T04:40:12;9.40;99.90
19044;DHT22;9654;52.302;8.120;2023-03-13T04:42:39;9.30;99.90
19044;DHT22;9654;52.302;8.120;2023-03-13T04:45:10;9.30;99.90
19044;DHT22;9654;52.302;8.120;2023-03-13T04:47:36;9.40;99.90
19044;DHT22;9654;52.302;8.120;2023-03-13T04:50:04;9.40;99.90
19044;DHT22;9654;52.302;8.120;2023-03-13T04:52:31;9.40;99.90
19044;DHT22;9654;52.302;8.120;2023-03-13T04:54:57;9.40;99.90
19044;DHT22;9654;52.302;8.120;2023-03-13T04:57:24;9.40;99.90
19044;DHT22;9654;52.302;8.120;2023-03-13T04:59:51;9.50;99.90
19044;DHT22;9654;52.302;8.120;2023-03-13T05:02:19;9.50;99.90
19044;DHT22;9654;52.302;8.120;2023-03-13T05:04:46;9.50;99.90
19044;DHT22;9654;52.302;8.120;2023-03-13T05:07:12;9.50;99.90
19044;DHT22;9654;52.302;8.120;2023-03-13T05:09:39;9.50;99.90
19044;DHT22;9654;52.302;8.120;2023-03-13T05:12:06;9.50;99.90
19044;DHT22;9654;52.302;8.120;2023-03-13T05:14:33;9.50;99.90
19044;DHT22;9654;52.302;8.120;2023-03-13T05:17:00;9.50;99.90
19044;DHT22;9654;52.302;8.120;2023-03-13T05:19:28;9.60;99.90
19044;DHT22;9654;52.302;8.120;2023-03-13T05:21:55;9.60;99.90
19044;DHT22;9654;52.302;8.120;2023-03-13T05:24:21;9.70;99.90
19044;DHT22;9654;52.302;8.120;2023-03-13T05:26:48;9.70;99.90
19044;DHT22;9654;52.302;8.120;2023-03-13T05:29:15;9.70;99.90
19044;DHT22;9654;52.302;8.120;2023-03-13T05:31:41;9.70;99.90
19044;DHT22;9654;52.302;8.120;2023-03-13T05:34:08;9.70;99.90
19044;DHT22;9654;52.302;8.120;2023-03-13T05:36:36;9.80;99.90
19044;DHT22;9654;52.302;8.120;2023-03-13T05:39:03;9.80;99.90
19044;DHT22;9654;52.302;8.120;2023-03-13T05:41:30;9.80;99.90
19044;DHT22;9654;52.302;8.120;2023-03-13T05:43:56;9.90;99.90
19044;DHT22;9654;52.302;8.120;2023-03-13T05:46:23;9.90;99.90
19044;DHT22;9654;52.302;8.120;2023-03-13T05:48:50;9.90;99.90
19044;DHT22;9654;52.302;8.120;2023-03-13T05:51:17;9.90;99.90
19044;DHT22;9654;52.302;8.120;2023-03-13T05:53:45;10.00;99.90
19044;DHT22;9654;52.302;8.120;2023-03-13T05:56:12;10.00;99.90
19044;DHT22;9654;52.302;8.120;2023-03-13T05:58:39;10.00;99.90
19044;DHT22;9654;52.302;8.120;2023-03-13T06:01:07;10.00;99.90
19044;DHT22;9654;52.302;8.120;2023-03-13T06:03:34;10.00;99.90
19044;DHT22;9654;52.302;8.120;2023-03-13T06:06:01;10.10;99.90
19044;DHT22;9654;52.302;8.120;2023-03-13T06:08:28;10.20;99.90
19044;DHT22;9654;52.302;8.120;2023-03-13T06:10:58;10.20;99.90
19044;DHT22;9654;52.302;8.120;2023-03-13T06:13:25;10.30;99.90
19044;DHT22;9654;52.302;8.120;2023-03-13T06:15:51;10.30;99.90
19044;DHT22;9654;52.302;8.120;2023-03-13T06:18:18;10.40;99.90
19044;DHT22;9654;52.302;8.120;2023-03-13T06:20:45;10.40;99.90
19044;DHT22;9654;52.302;8.120;2023-03-13T06:23:12;10.50;99.90
19044;DHT22;9654;52.302;8.120;2023-03-13T06:25:38;10.50;99.90
19044;DHT22;9654;52.302;8.120;2023-03-13T06:28:06;10.50;99.90
19044;DHT22;9654;52.302;8.120;2023-03-13T06:30:33;10.60;99.90
19044;DHT22;9654;52.302;8.120;2023-03-13T06:33:00;10.60;99.90
19044;DHT22;9654;52.302;8.120;2023-03-13T06:35:27;10.60;99.90
19044;DHT22;9654;52.302;8.120;2023-03-13T06:37:54;10.70;99.90
19044;DHT22;9654;52.302;8.120;2023-03-13T06:40:20;10.70;99.90
19044;DHT22;9654;52.302;8.120;2023-03-13T06:42:47;10.70;99.90
19044;DHT22;9654;52.302;8.120;2023-03-13T06:45:15;10.80;99.90
19044;DHT22;9654;52.302;8.120;2023-03-13T06:47:42;10.80;99.90
19044;DHT22;9654;52.302;8.120;2023-03-13T06:50:10;10.90;99.90
19044;DHT22;9654;52.302;8.120;2023-03-13T06:52:37;10.90;99.90
19044;DHT22;9654;52.302;8.120;2023-03-13T06:55:04;10.90;99.90
19044;DHT22;9654;52.302;8.120;2023-03-13T06:57:31;10.90;99.90
19044;DHT22;9654;52.302;8.120;2023-03-13T06:59:58;11.00;99.90
19044;DHT22;9654;52.302;8.120;2023-03-13T07:02:26;11.00;99.90
19044;DHT22;9654;52.302;8.120;2023-03-13T07:04:53;11.10;99.90
19044;DHT22;9654;52.302;8.120;2023-03-13T07:07:19;11.10;99.90
19044;DHT22;9654;52.302;8.120;2023-03-13T07:09:46;11.20;99.90
19044;DHT22;9654;52.302;8.120;2023-03-13T07:12:13;11.20;99.90
19044;DHT22;9654;52.302;8.120;2023-03-13T07:14:40;11.30;99.90
19044;DHT22;9654;52.302;8.120;2023-03-13T07:17:07;11.30;99.90
19044;DHT22;9654;52.302;8.120;2023-03-13T07:19:35;11.40;99.90
19044;DHT22;9654;52.302;8.120;2023-03-13T07:22:01;11.40;99.90
19044;DHT22;9654;52.302;8.120;2023-03-13T07:24:28;11.40;99.90
19044;DHT22;9654;52.302;8.120;2023-03-13T07:26:55;11.50;99.90
19044;DHT22;9654;52.302;8.120;2023-03-13T07:29:22;11.60;99.90
19044;DHT22;9654;52.302;8.120;2023-03-13T07:31:49;11.50;99.90
19044;DHT22;9654;52.302;8.120;2023-03-13T07:34:16;11.50;99.90
19044;DHT22;9654;52.302;8.120;2023-03-13T07:36:44;11.60;99.90
19044;DHT22;9654;52.302;8.120;2023-03-13T07:39:11;11.60;99.90
19044;DHT22;9654;52.302;8.120;2023-03-13T07:41:38;11.70;99.90
19044;DHT22;9654;52.302;8.120;2023-03-13T07:44:05;11.80;99.90
19044;DHT22;9654;52.302;8.120;2023-03-13T07:46:32;11.90;99.90
19044;DHT22;9654;52.302;8.120;2023-03-13T07:48:58;11.90;99.90
19044;DHT22;9654;52.302;8.120;2023-03-13T07:51:26;11.90;99.90
19044;DHT22;9654;52.302;8.120;2023-03-13T07:53:54;12.00;99.90
19044;DHT22;9654;52.302;8.120;2023-03-13T07:56:22;12.00;99.90
19044;DHT22;9654;52.302;8.120;2023-03-13T07:58:49;12.00;99.90
19044;DHT22;9654;52.302;8.120;2023-03-13T08:01:18;12.00;99.90
19044;DHT22;9654;52.302;8.120;2023-03-13T08:03:46;12.00;99.90
19044;DHT22;9654;52.302;8.120;2023-03-13T08:06:16;12.00;99.90
19044;DHT22;9654;52.302;8.120;2023-03-13T08:08:43;12.00;99.90
19044;DHT22;9654;52.302;8.120;2023-03-13T08:11:12;12.00;99.90
19044;DHT22;9654;52.302;8.120;2023-03-13T08:13:40;12.00;99.90
19044;DHT22;9654;52.302;8.120;2023-03-13T08:16:09;12.00;99.90
19044;DHT22;9654;52.302;8.120;2023-03-13T08:18:38;12.00;99.90
19044;DHT22;9654;52.302;8.120;2023-03-13T08:21:07;12.00;99.90
19044;DHT22;9654;52.302;8.120;2023-03-13T08:23:34;12.00;99.90
19044;DHT22;9654;52.302;8.120;2023-03-13T08:26:03;12.00;99.90
19044;DHT22;9654;52.302;8.120;2023-03-13T08:28:32;12.10;99.90
19044;DHT22;9654;52.302;8.120;2023-03-13T08:31:06;12.10;99.90
19044;DHT22;9654;52.302;8.120;2023-03-13T08:33:33;12.20;99.90
19044;DHT22;9654;52.302;8.120;2023-03-13T08:36:07;12.20;99.90
19044;DHT22;9654;52.302;8.120;2023-03-13T08:38:34;12.20;99.90
19044;DHT22;9654;52.302;8.120;2023-03-13T08:43:37;12.20;99.90
19044;DHT22;9654;52.302;8.120;2023-03-13T08:46:04;12.30;99.90
19044;DHT22;9654;52.302;8.120;2023-03-13T08:48:31;12.30;99.90
19044;DHT22;9654;52.302;8.120;2023-03-13T08:51:00;12.40;99.90
19044;DHT22;9654;52.302;8.120;2023-03-13T08:53:27;12.30;99.90
19044;DHT22;9654;52.302;8.120;2023-03-13T08:55:54;12.40;99.90
19044;DHT22;9654;52.302;8.120;2023-03-13T08:58:21;12.40;99.90
19044;DHT22;9654;52.302;8.120;2023-03-13T09:00:53;12.40;99.90
19044;DHT22;9654;52.302;8.120;2023-03-13T09:03:20;12.50;99.90
19044;DHT22;9654;52.302;8.120;2023-03-13T09:05:49;12.50;99.90
19044;DHT22;9654;52.302;8.120;2023-03-13T09:08:20;12.50;99.90
19044;DHT22;9654;52.302;8.120;2023-03-13T09:10:57;12.50;99.90
19044;DHT22;9654;52.302;8.120;2023-03-13T09:13:33;12.50;99.90
19044;DHT22;9654;52.302;8.120;2023-03-13T09:16:04;12.60;99.90
19044;DHT22;9654;52.302;8.120;2023-03-13T09:18:32;12.60;99.90
19044;DHT22;9654;52.302;8.120;2023-03-13T09:20:59;12.70;99.90
19044;DHT22;9654;52.302;8.120;2023-03-13T09:23:26;12.70;99.90
19044;DHT22;9654;52.302;8.120;2023-03-13T09:25:55;12.70;99.90
19044;DHT22;9654;52.302;8.120;2023-03-13T09:28:24;12.70;99.90
19044;DHT22;9654;52.302;8.120;2023-03-13T09:30:54;12.80;99.90
19044;DHT22;9654;52.302;8.120;2023-03-13T09:33:22;13.00;99.90
19044;DHT22;9654;52.302;8.120;2023-03-13T09:35:50;13.00;99.90
19044;DHT22;9654;52.302;8.120;2023-03-13T09:38:18;13.10;99.90
19044;DHT22;9654;52.302;8.120;2023-03-13T09:41:04;13.10;99.90
19044;DHT22;9654;52.302;8.120;2023-03-13T09:43:41;13.20;99.90
19044;DHT22;9654;52.302;8.120;2023-03-13T09:46:15;13.30;99.90
19044;DHT22;9654;52.302;8.120;2023-03-13T09:48:49;13.40;99.90
19044;DHT22;9654;52.302;8.120;2023-03-13T09:51:20;13.50;99.90
19044;DHT22;9654;52.302;8.120;2023-03-13T09:53:51;13.70;99.90
19044;DHT22;9654;52.302;8.120;2023-03-13T09:56:22;13.70;99.90
19044;DHT22;9654;52.302;8.120;2023-03-13T09:58:53;13.70;99.90
19044;DHT22;9654;52.302;8.120;2023-03-13T10:01:23;13.80;99.90
19044;DHT22;9654;52.302;8.120;2023-03-13T10:04:04;13.80;99.90
19044;DHT22;9654;52.302;8.120;2023-03-13T10:06:34;13.80;99.90
19044;DHT22;9654;52.302;8.120;2023-03-13T10:09:12;13.80;99.90
19044;DHT22;9654;52.302;8.120;2023-03-13T10:11:45;13.90;99.90
19044;DHT22;9654;52.302;8.120;2023-03-13T10:14:17;14.00;99.90
19044;DHT22;9654;52.302;8.120;2023-03-13T10:16:48;14.00;99.90
19044;DHT22;9654;52.302;8.120;2023-03-13T10:19:29;14.20;99.90
19044;DHT22;9654;52.302;8.120;2023-03-13T10:21:59;14.30;99.90
19044;DHT22;9654;52.302;8.120;2023-03-13T10:24:32;14.30;99.90
19044;DHT22;9654;52.302;8.120;2023-03-13T10:26:59;14.30;99.90
19044;DHT22;9654;52.302;8.120;2023-03-13T10:29:28;14.40;99.90
19044;DHT22;9654;52.302;8.120;2023-03-13T10:31:57;14.50;99.90
19044;DHT22;9654;52.302;8.120;2023-03-13T10:34:27;14.50;99.90
19044;DHT22;9654;52.302;8.120;2023-03-13T10:36:57;14.50;99.90
19044;DHT22;9654;52.302;8.120;2023-03-13T10:39:26;14.50;99.90
19044;DHT22;9654;52.302;8.120;2023-03-13T10:41:57;14.40;99.90
19044;DHT22;9654;52.302;8.120;2023-03-13T10:44:30;14.40;99.90
19044;DHT22;9654;52.302;8.120;2023-03-13T10:47:00;14.30;99.90
19044;DHT22;9654;52.302;8.120;2023-03-13T10:49:29;14.50;99.90
19044;DHT22;9654;52.302;8.120;2023-03-13T10:51:58;14.60;99.90
19044;DHT22;9654;52.302;8.120;2023-03-13T10:54:26;14.80;99.90
19044;DHT22;9654;52.302;8.120;2023-03-13T10:57:08;14.80;99.90
19044;DHT22;9654;52.302;8.120;2023-03-13T10:59:39;14.90;99.90
19044;DHT22;9654;52.302;8.120;2023-03-13T11:02:20;14.90;99.90
19044;DHT22;9654;52.302;8.120;2023-03-13T11:04:49;15.00;99.90
19044;DHT22;9654;52.302;8.120;2023-03-13T11:07:21;15.10;99.90
19044;DHT22;9654;52.302;8.120;2023-03-13T11:09:58;15.30;99.90
19044;DHT22;9654;52.302;8.120;2023-03-13T11:12:25;15.60;99.90
19044;DHT22;9654;52.302;8.120;2023-03-13T11:14:56;15.70;99.90
19044;DHT22;9654;52.302;8.120;2023-03-13T11:17:30;15.70;99.90
19044;DHT22;9654;52.302;8.120;2023-03-13T11:20:07;15.70;99.90
19044;DHT22;9654;52.302;8.120;2023-03-13T11:22:46;15.70;99.90
19044;DHT22;9654;52.302;8.120;2023-03-13T11:25:19;15.60;99.90
19044;DHT22;9654;52.302;8.120;2023-03-13T11:27:54;15.50;99.90
19044;DHT22;9654;52.302;8.120;2023-03-13T11:30:42;15.50;99.90
19044;DHT22;9654;52.302;8.120;2023-03-13T11:33:21;15.60;99.90
19044;DHT22;9654;52.302;8.120;2023-03-13T11:35:55;15.70;99.90
19044;DHT22;9654;52.302;8.120;2023-03-13T11:38:28;15.80;99.90
19044;DHT22;9654;52.302;8.120;2023-03-13T11:41:04;15.90;99.90
19044;DHT22;9654;52.302;8.120;2023-03-13T11:43:47;16.10;99.90
19044;DHT22;9654;52.302;8.120;2023-03-13T11:46:27;16.20;99.90
19044;DHT22;9654;52.302;8.120;2023-03-13T11:49:09;16.20;99.90
19044;DHT22;9654;52.302;8.120;2023-03-13T11:51:51;16.20;99.90
19044;DHT22;9654;52.302;8.120;2023-03-13T11:57:24;16.10;99.90
19044;DHT22;9654;52.302;8.120;2023-03-13T12:00:06;16.20;99.90
19044;DHT22;9654;52.302;8.120;2023-03-13T12:02:43;16.20;99.90
19044;DHT22;9654;52.302;8.120;2023-03-13T12:05:15;16.20;99.90
19044;DHT22;9654;52.302;8.120;2023-03-13T12:07:50;16.30;99.90
19044;DHT22;9654;52.302;8.120;2023-03-13T12:10:23;16.20;99.90
19044;DHT22;9654;52.302;8.120;2023-03-13T12:12:58;16.30;99.90
19044;DHT22;9654;52.302;8.120;2023-03-13T12:15:29;16.20;99.90
19044;DHT22;9654;52.302;8.120;2023-03-13T12:17:59;16.30;99.90
19044;DHT22;9654;52.302;8.120;2023-03-13T12:20:33;16.20;99.90
19044;DHT22;9654;52.302;8.120;2023-03-13T12:23:17;16.10;99.90
19044;DHT22;9654;52.302;8.120;2023-03-13T12:25:48;16.10;99.90
19044;DHT22;9654;52.302;8.120;2023-03-13T12:28:27;16.10;99.90
19044;DHT22;9654;52.302;8.120;2023-03-13T12:31:07;16.10;99.90
19044;DHT22;9654;52.302;8.120;2023-03-13T12:33:41;16.20;99.90
19044;DHT22;9654;52.302;8.120;2023-03-13T12:36:13;16.30;99.90
19044;DHT22;9654;52.302;8.120;2023-03-13T12:38:48;16.30;99.90
19044;DHT22;9654;52.302;8.120;2023-03-13T12:41:19;16.30;99.90
19044;DHT22;9654;52.302;8.120;2023-03-13T12:43:51;16.30;99.90
19044;DHT22;9654;52.302;8.120;2023-03-13T12:46:30;16.50;99.90
19044;DHT22;9654;52.302;8.120;2023-03-13T12:49:11;16.60;99.90
19044;DHT22;9654;52.302;8.120;2023-03-13T12:51:50;16.60;99.90
19044;DHT22;9654;52.302;8.120;2023-03-13T12:54:43;16.60;99.90
19044;DHT22;9654;52.302;8.120;2023-03-13T12:57:33;16.60;99.90
19044;DHT22;9654;52.302;8.120;2023-03-13T13:00:14;16.60;99.90
19044;DHT22;9654;52.302;8.120;2023-03-13T13:02:42;16.70;99.90
19044;DHT22;9654;52.302;8.120;2023-03-13T13:05:17;16.80;99.90
19044;DHT22;9654;52.302;8.120;2023-03-13T13:07:52;16.70;99.90
19044;DHT22;9654;52.302;8.120;2023-03-13T13:10:24;16.70;99.90
19044;DHT22;9654;52.302;8.120;2023-03-13T13:15:59;17.00;99.90
19044;DHT22;9654;52.302;8.120;2023-03-13T13:18:29;17.10;99.90
19044;DHT22;9654;52.302;8.120;2023-03-13T13:21:26;17.00;99.90
19044;DHT22;9654;52.302;8.120;2023-03-13T13:27:02;16.80;99.90
19044;DHT22;9654;52.302;8.120;2023-03-13T13:29:55;16.70;99.90
19044;DHT22;9654;52.302;8.120;2023-03-13T13:32:44;16.80;99.90
19044;DHT22;9654;52.302;8.120;2023-03-13T13:35:32;16.80;99.90
19044;DHT22;9654;52.302;8.120;2023-03-13T13:38:27;16.70;99.90
19044;DHT22;9654;52.302;8.120;2023-03-13T13:41:03;16.60;99.90
19044;DHT22;9654;52.302;8.120;2023-03-13T13:43:33;16.60;99.90
19044;DHT22;9654;52.302;8.120;2023-03-13T13:46:03;16.60;99.90
19044;DHT22;9654;52.302;8.120;2023-03-13T13:48:34;16.70;99.90
19044;DHT22;9654;52.302;8.120;2023-03-13T13:51:32;16.90;99.90
19044;DHT22;9654;52.302;8.120;2023-03-13T13:54:01;17.00;99.90
19044;DHT22;9654;52.302;8.120;2023-03-13T13:56:35;16.90;99.90
19044;DHT22;9654;52.302;8.120;2023-03-13T13:59:24;16.80;99.90
19044;DHT22;9654;52.302;8.120;2023-03-13T14:02:18;16.70;99.90
19044;DHT22;9654;52.302;8.120;2023-03-13T14:04:51;16.60;99.90
19044;DHT22;9654;52.302;8.120;2023-03-13T14:07:24;16.70;99.90
19044;DHT22;9654;52.302;8.120;2023-03-13T14:09:59;17.00;99.90
19044;DHT22;9654;52.302;8.120;2023-03-13T14:12:28;17.20;99.90
19044;DHT22;9654;52.302;8.120;2023-03-13T14:15:15;17.20;99.90
19044;DHT22;9654;52.302;8.120;2023-03-13T14:17:45;17.40;99.90
19044;DHT22;9654;52.302;8.120;2023-03-13T14:20:31;17.40;99.90
19044;DHT22;9654;52.302;8.120;2023-03-13T14:23:02;17.30;99.90
19044;DHT22;9654;52.302;8.120;2023-03-13T14:25:42;17.30;99.90
19044;DHT22;9654;52.302;8.120;2023-03-13T14:28:18;17.40;99.90
19044;DHT22;9654;52.302;8.120;2023-03-13T14:30:48;17.30;99.90
19044;DHT22;9654;52.302;8.120;2023-03-13T14:33:15;17.10;99.90
19044;DHT22;9654;52.302;8.120;2023-03-13T14:35:43;17.10;99.90
19044;DHT22;9654;52.302;8.120;2023-03-13T14:38:16;17.00;99.90
19044;DHT22;9654;52.302;8.120;2023-03-13T14:40:43;17.00;99.90
19044;DHT22;9654;52.302;8.120;2023-03-13T14:43:29;17.00;99.90
19044;DHT22;9654;52.302;8.120;2023-03-13T14:46:15;16.90;99.90
19044;DHT22;9654;52.302;8.120;2023-03-13T14:48:47;16.90;99.90
19044;DHT22;9654;52.302;8.120;2023-03-13T14:51:20;16.80;99.90
19044;DHT22;9654;52.302;8.120;2023-03-13T14:53:55;16.70;99.90
19044;DHT22;9654;52.302;8.120;2023-03-13T14:56:31;16.70;99.90
19044;DHT22;9654;52.302;8.120;2023-03-13T14:59:14;16.70;99.90
19044;DHT22;9654;52.302;8.120;2023-03-13T15:01:43;16.60;99.90
19044;DHT22;9654;52.302;8.120;2023-03-13T15:04:10;16.60;99.90
19044;DHT22;9654;52.302;8.120;2023-03-13T15:06:37;16.50;99.90
19044;DHT22;9654;52.302;8.120;2023-03-13T15:09:14;16.50;99.90
19044;DHT22;9654;52.302;8.120;2023-03-13T15:11:42;16.50;99.90
19044;DHT22;9654;52.302;8.120;2023-03-13T15:14:35;16.40;99.90
19044;DHT22;9654;52.302;8.120;2023-03-13T15:17:14;16.40;99.90
19044;DHT22;9654;52.302;8.120;2023-03-13T15:19:40;16.30;99.90
19044;DHT22;9654;52.302;8.120;2023-03-13T15:22:11;16.30;99.90
19044;DHT22;9654;52.302;8.120;2023-03-13T15:24:39;16.30;99.90
19044;DHT22;9654;52.302;8.120;2023-03-13T15:27:14;16.30;99.90
19044;DHT22;9654;52.302;8.120;2023-03-13T15:29:41;16.20;99.90
19044;DHT22;9654;52.302;8.120;2023-03-13T15:32:13;16.20;99.90
19044;DHT22;9654;52.302;8.120;2023-03-13T15:34:42;16.30;99.90
19044;DHT22;9654;52.302;8.120;2023-03-13T15:37:10;16.50;99.90
19044;DHT22;9654;52.302;8.120;2023-03-13T15:39:37;16.60;99.90
19044;DHT22;9654;52.302;8.120;2023-03-13T15:42:04;16.60;99.90
19044;DHT22;9654;52.302;8.120;2023-03-13T15:44:31;16.50;99.90
19044;DHT22;9654;52.302;8.120;2023-03-13T15:46:57;16.40;99.90
19044;DHT22;9654;52.302;8.120;2023-03-13T15:49:26;16.30;99.90
19044;DHT22;9654;52.302;8.120;2023-03-13T15:51:52;16.30;99.90
19044;DHT22;9654;52.302;8.120;2023-03-13T15:54:19;16.30;99.90
19044;DHT22;9654;52.302;8.120;2023-03-13T15:56:46;16.30;99.90
19044;DHT22;9654;52.302;8.120;2023-03-13T15:59:14;16.30;99.90
19044;DHT22;9654;52.302;8.120;2023-03-13T16:01:41;16.40;99.90
19044;DHT22;9654;52.302;8.120;2023-03-13T16:04:10;16.40;99.90
19044;DHT22;9654;52.302;8.120;2023-03-13T16:06:38;16.30;99.90
19044;DHT22;9654;52.302;8.120;2023-03-13T16:09:06;16.30;99.90
19044;DHT22;9654;52.302;8.120;2023-03-13T16:11:32;16.40;99.90
19044;DHT22;9654;52.302;8.120;2023-03-13T16:13:59;16.30;99.90
19044;DHT22;9654;52.302;8.120;2023-03-13T16:16:28;16.30;99.90
19044;DHT22;9654;52.302;8.120;2023-03-13T16:18:56;16.20;99.90
19044;DHT22;9654;52.302;8.120;2023-03-13T16:21:25;16.20;99.90
19044;DHT22;9654;52.302;8.120;2023-03-13T16:23:53;16.20;99.90